Terminal Aerodrome Forecast
Issued by NWS

Home | Current Version | Previous Version | Text Only | Print | Product List | Glossary On
Versions: 1 2 3 4 5 6 7 8 9 10 11 12 13 14 15 16
000
FTUS42 KGSP 201720
TAFHKY
TAF
KHKY 201720Z 2018/2118 VRB03KT P6SM FEW050 FEW250
     FM211000 VRB02KT 4SM BR FEW200
     FM211300 00000KT P6SM FEW250
     FM211600 12005KT P6SM FEW045 FEW250=

USA.gov is the U.S. government's official web portal to all federal, state and local government web resources and services.